createdAt,value
2022-12-11T00:00:54.718Z,9.681110
2022-12-11T00:01:54.808Z,9.680647
2022-12-11T00:02:54.719Z,9.680739
2022-12-11T00:03:54.751Z,9.680471
2022-12-11T00:04:54.694Z,9.680471
2022-12-11T00:05:54.704Z,9.680471
2022-12-11T00:06:54.686Z,9.680471
2022-12-11T00:07:54.737Z,9.679919
2022-12-11T00:08:54.688Z,9.680972
2022-12-11T00:09:54.707Z,9.681367
2022-12-11T00:10:54.680Z,9.681334
2022-12-11T00:11:54.650Z,9.681392
2022-12-11T00:12:54.676Z,9.681183
2022-12-11T00:13:54.681Z,9.680845
2022-12-11T00:14:54.634Z,9.680771
2022-12-11T00:15:54.624Z,9.680506
2022-12-11T00:16:54.692Z,9.680904
2022-12-11T00:17:54.620Z,9.681555
2022-12-11T00:18:54.606Z,9.681831
2022-12-11T00:19:54.597Z,9.681529
2022-12-11T00:20:54.598Z,9.681060
2022-12-11T00:21:54.593Z,9.680730
2022-12-11T00:22:54.618Z,9.680615
2022-12-11T00:23:54.580Z,9.680486
2022-12-11T00:24:54.572Z,9.680829
2022-12-11T00:25:54.595Z,9.681043
2022-12-11T00:26:54.552Z,9.681184
2022-12-11T00:27:54.567Z,9.681145
2022-12-11T00:28:54.550Z,9.681128
2022-12-11T00:29:54.547Z,9.681257
2022-12-11T00:30:54.535Z,9.681295
2022-12-11T00:31:54.587Z,9.681343
2022-12-11T00:32:54.533Z,9.681215
2022-12-11T00:33:54.561Z,9.680910
2022-12-11T00:34:54.541Z,9.680947
2022-12-11T00:35:55.023Z,9.680947
2022-12-11T00:36:54.496Z,9.680852
2022-12-11T00:37:54.508Z,9.681017
2022-12-11T00:38:54.496Z,9.681120
2022-12-11T00:39:54.518Z,9.681222
2022-12-11T00:40:54.485Z,9.681265
2022-12-11T00:41:54.502Z,9.681129
2022-12-11T00:42:54.451Z,9.680985
2022-12-11T00:43:54.454Z,9.681002
2022-12-11T00:44:54.444Z,9.681042
2022-12-11T00:45:54.451Z,9.680851
2022-12-11T00:46:54.496Z,9.680909
2022-12-11T00:47:54.454Z,9.680992
2022-12-11T00:48:54.439Z,9.681035
2022-12-11T00:49:54.417Z,9.680857
2022-12-11T00:50:54.432Z,9.680907
2022-12-11T00:51:54.426Z,9.681065
2022-12-11T00:52:54.392Z,9.681005
2022-12-11T00:53:54.410Z,9.681185
2022-12-11T00:54:54.400Z,9.681148
2022-12-11T00:55:54.378Z,9.681027
2022-12-11T00:56:54.366Z,9.681088
2022-12-11T00:57:54.368Z,9.681028
2022-12-11T00:58:54.392Z,9.680991
2022-12-11T00:59:54.352Z,9.681078
2022-12-11T01:00:54.441Z,9.681482
2022-12-11T01:01:54.349Z,9.681277
2022-12-11T01:02:54.409Z,9.681261
2022-12-11T01:03:54.346Z,9.681273
2022-12-11T01:04:54.333Z,9.681014
2022-12-11T01:05:54.337Z,9.680949
2022-12-11T01:06:54.309Z,9.681028
2022-12-11T01:07:54.360Z,9.681171
2022-12-11T01:08:54.315Z,9.681213
2022-12-11T01:09:54.290Z,9.681376
2022-12-11T01:10:54.358Z,9.681168
2022-12-11T01:11:54.295Z,9.681207
2022-12-11T01:12:54.304Z,9.681065
2022-12-11T01:13:54.270Z,9.680914
2022-12-11T01:14:54.269Z,9.681066
2022-12-11T01:15:54.254Z,9.681470
2022-12-11T01:16:54.342Z,9.681430
2022-12-11T01:17:54.238Z,9.681209
2022-12-11T01:18:54.249Z,9.681475
2022-12-11T01:19:54.240Z,9.681307
2022-12-11T01:20:54.245Z,9.681174
2022-12-11T01:21:54.219Z,9.681156
2022-12-11T01:22:54.218Z,9.681278
2022-12-11T01:23:54.230Z,9.681149
2022-12-11T01:24:54.199Z,9.680971
2022-12-11T01:25:54.179Z,9.681055
2022-12-11T01:26:54.169Z,9.680866
2022-12-11T01:27:54.180Z,9.681167
2022-12-11T01:28:54.159Z,9.681319
2022-12-11T01:29:54.168Z,9.681227
2022-12-11T01:30:54.181Z,9.681243
2022-12-11T01:31:54.153Z,9.681357
2022-12-11T01:32:54.140Z,9.681398
2022-12-11T01:33:54.142Z,9.681678
2022-12-11T01:34:54.134Z,9.681531
2022-12-11T01:35:54.122Z,9.681255
2022-12-11T01:36:54.142Z,9.681277
2022-12-11T01:37:54.143Z,9.681374
2022-12-11T01:38:54.104Z,9.681028
2022-12-11T01:39:54.108Z,9.681220
2022-12-11T01:40:54.086Z,9.681098
2022-12-11T01:41:54.087Z,9.681149
2022-12-11T01:42:54.084Z,9.681047
2022-12-11T01:43:54.080Z,9.681187
2022-12-11T01:44:54.097Z,9.681461
2022-12-11T01:45:54.093Z,9.681411
2022-12-11T01:46:54.048Z,9.681182
2022-12-11T01:47:54.070Z,9.681168
2022-12-11T01:48:54.063Z,9.681429
2022-12-11T01:49:54.028Z,9.681270
2022-12-11T01:50:54.021Z,9.681380
2022-12-11T01:51:54.023Z,9.681046
2022-12-11T01:52:54.023Z,9.681069
2022-12-11T01:53:54.008Z,9.680906
2022-12-11T01:54:54.011Z,9.681082
2022-12-11T01:55:53.985Z,9.680920
2022-12-11T01:56:53.980Z,9.681174
2022-12-11T01:57:54.052Z,9.681289
2022-12-11T01:58:53.972Z,9.681564
2022-12-11T01:59:53.975Z,9.681724
2022-12-11T02:00:54.012Z,9.681712
2022-12-11T02:01:53.946Z,9.681451
2022-12-11T02:02:53.980Z,9.681271
2022-12-11T02:03:53.933Z,9.681256
2022-12-11T02:04:53.937Z,9.681190
2022-12-11T02:05:53.915Z,9.681457
2022-12-11T02:06:53.926Z,9.681566
2022-12-11T02:07:53.980Z,9.681710
2022-12-11T02:08:53.897Z,9.681499
2022-12-11T02:09:53.919Z,9.681159
2022-12-11T02:10:53.886Z,9.681251
2022-12-11T02:11:53.884Z,9.681038
2022-12-11T02:12:53.873Z,9.681205
2022-12-11T02:13:53.867Z,9.681116
2022-12-11T02:14:53.860Z,9.680830
2022-12-11T02:15:53.874Z,9.680552
2022-12-11T02:16:53.863Z,9.680647
2022-12-11T02:17:53.891Z,9.680853
2022-12-11T02:18:53.831Z,9.680896
2022-12-11T02:19:53.843Z,9.680709
2022-12-11T02:20:53.824Z,9.681164
2022-12-11T02:21:53.810Z,9.681159
2022-12-11T02:22:53.827Z,9.681161
2022-12-11T02:23:53.819Z,9.681233
2022-12-11T02:24:53.808Z,9.681127
2022-12-11T02:25:53.813Z,9.681370
2022-12-11T02:26:53.782Z,9.680965
2022-12-11T02:27:53.775Z,9.680978
2022-12-11T02:28:53.766Z,9.680883
2022-12-11T02:29:53.767Z,9.680972
2022-12-11T02:30:53.753Z,9.681204
2022-12-11T02:31:53.806Z,9.681747
2022-12-11T02:32:53.753Z,9.681666
2022-12-11T02:33:53.739Z,9.681335
2022-12-11T02:34:53.724Z,9.681143
2022-12-11T02:35:53.727Z,9.680972
2022-12-11T02:36:53.739Z,9.681133
2022-12-11T02:37:53.711Z,9.681377
2022-12-11T02:38:53.698Z,9.680813
2022-12-11T02:39:53.697Z,9.681018
2022-12-11T02:40:53.684Z,9.681432
2022-12-11T02:41:53.699Z,9.681014
2022-12-11T02:42:53.684Z,9.681167
2022-12-11T02:43:53.663Z,9.680845
2022-12-11T02:44:53.661Z,9.680260
2022-12-11T02:45:53.695Z,9.679179
2022-12-11T02:46:53.660Z,9.679567
2022-12-11T02:47:53.648Z,9.680485
2022-12-11T02:48:53.643Z,9.681399
2022-12-11T02:49:53.632Z,9.680616
2022-12-11T02:50:53.623Z,9.681364
2022-12-11T02:51:53.633Z,9.681135
2022-12-11T02:52:53.625Z,9.681084
2022-12-11T02:53:53.631Z,9.681062
2022-12-11T02:54:53.591Z,9.680930
2022-12-11T02:55:53.599Z,9.681362
2022-12-11T02:56:53.594Z,9.681371
2022-12-11T02:57:53.585Z,9.681156
2022-12-11T02:58:58.367Z,9.680930
2022-12-11T02:59:54.585Z,9.680906
2022-12-11T03:00:53.558Z,9.680962
2022-12-11T03:01:53.550Z,9.681125
2022-12-11T03:02:53.541Z,9.680620
2022-12-11T03:03:53.534Z,9.680829
2022-12-11T03:04:53.528Z,9.681393
2022-12-11T03:05:53.551Z,9.680870
2022-12-11T03:06:53.521Z,9.681206
2022-12-11T03:07:53.572Z,9.680849
2022-12-11T03:08:53.512Z,9.681787
2022-12-11T03:09:53.510Z,9.681819
2022-12-11T03:10:53.497Z,9.682012
2022-12-11T03:11:53.505Z,9.681725
2022-12-11T03:12:54.133Z,9.681091
2022-12-11T03:13:53.480Z,9.681288
2022-12-11T03:14:53.467Z,9.681143
2022-12-11T03:15:53.466Z,9.680585
2022-12-11T03:16:53.453Z,9.680951
2022-12-11T03:17:53.453Z,9.680785
2022-12-11T03:18:53.464Z,9.680776
2022-12-11T03:19:53.437Z,9.680885
2022-12-11T03:20:53.465Z,9.680665
2022-12-11T03:21:53.433Z,9.681069
2022-12-11T03:22:53.430Z,9.681126
2022-12-11T03:23:53.942Z,9.681103
2022-12-11T03:24:53.402Z,9.680752
2022-12-11T03:25:53.407Z,9.680891
2022-12-11T03:26:56.503Z,9.681192
2022-12-11T03:27:53.402Z,9.681124
2022-12-11T03:28:53.383Z,9.681265
2022-12-11T03:29:53.380Z,9.681351
2022-12-11T03:30:53.447Z,9.680866
2022-12-11T03:31:53.422Z,9.680732
2022-12-11T03:32:53.367Z,9.680869
2022-12-11T03:33:53.363Z,9.680969
2022-12-11T03:34:58.064Z,9.680867
2022-12-11T03:35:54.339Z,9.681086
2022-12-11T03:36:53.344Z,9.680998
2022-12-11T03:37:53.350Z,9.680733
2022-12-11T03:38:53.324Z,9.680955
2022-12-11T03:39:53.320Z,9.681218
2022-12-11T03:40:53.308Z,9.681067
2022-12-11T03:41:53.363Z,9.680859
2022-12-11T03:42:53.310Z,9.681021
2022-12-11T03:43:53.298Z,9.681025
2022-12-11T03:44:53.303Z,9.680944
2022-12-11T03:45:53.308Z,9.680970
2022-12-11T03:46:53.272Z,9.680993
2022-12-11T03:47:53.290Z,9.681012
2022-12-11T03:48:53.258Z,9.681204
2022-12-11T03:49:53.279Z,9.680998
2022-12-11T03:50:53.248Z,9.681084
2022-12-11T03:51:53.254Z,9.680951
2022-12-11T03:52:53.234Z,9.681258
2022-12-11T03:53:53.230Z,9.681050
2022-12-11T03:54:53.225Z,9.680960
2022-12-11T03:55:53.233Z,9.680639
2022-12-11T03:56:53.206Z,9.680847
2022-12-11T03:57:53.213Z,9.680778
2022-12-11T03:58:53.222Z,9.680891
2022-12-11T03:59:53.202Z,9.681096
2022-12-11T04:00:53.214Z,9.681262
2022-12-11T04:01:53.242Z,9.681171
2022-12-11T04:02:53.194Z,9.681081
2022-12-11T04:03:53.245Z,9.680964
2022-12-11T04:04:53.171Z,9.680952
2022-12-11T04:05:53.189Z,9.681189
2022-12-11T04:06:53.154Z,9.681198
2022-12-11T04:07:53.227Z,9.681247
2022-12-11T04:08:53.136Z,9.681275
2022-12-11T04:09:53.144Z,9.681022
2022-12-11T04:10:53.127Z,9.681213
2022-12-11T04:11:53.119Z,9.681160
2022-12-11T04:12:53.119Z,9.681247
2022-12-11T04:13:53.124Z,9.681200
2022-12-11T04:14:53.101Z,9.681149
2022-12-11T04:15:53.123Z,9.681607
2022-12-11T04:16:53.108Z,9.681687
2022-12-11T04:17:53.120Z,9.681287
2022-12-11T04:18:53.077Z,9.681050
2022-12-11T04:19:53.085Z,9.681212
2022-12-11T04:20:53.086Z,9.681183
2022-12-11T04:21:53.070Z,9.681236
2022-12-11T04:22:53.053Z,9.681104
2022-12-11T04:23:53.055Z,9.680897
2022-12-11T04:24:53.061Z,9.681005
2022-12-11T04:25:53.039Z,9.681068
2022-12-11T04:26:53.026Z,9.681068
2022-12-11T04:27:53.043Z,9.681228
2022-12-11T04:28:53.016Z,9.681049
2022-12-11T04:29:53.011Z,9.681020
2022-12-11T04:30:53.100Z,9.680948
2022-12-11T04:31:53.000Z,9.680701
2022-12-11T04:32:52.983Z,9.680922
2022-12-11T04:33:52.983Z,9.680971
2022-12-11T04:34:52.972Z,9.681033
2022-12-11T04:35:52.969Z,9.681213
2022-12-11T04:36:52.980Z,9.681436
2022-12-11T04:37:52.969Z,9.681097
2022-12-11T04:38:52.962Z,9.681078
2022-12-11T04:39:52.948Z,9.680931
2022-12-11T04:40:52.933Z,9.681213
2022-12-11T04:41:52.954Z,9.681628
2022-12-11T04:42:52.927Z,9.681084
2022-12-11T04:43:52.928Z,9.681116
2022-12-11T04:44:52.926Z,9.681080
2022-12-11T04:45:52.905Z,9.681771
2022-12-11T04:46:52.926Z,9.681178
2022-12-11T04:47:52.913Z,9.680922
2022-12-11T04:48:57.367Z,9.680993
2022-12-11T04:49:53.886Z,9.680939
2022-12-11T04:50:52.867Z,9.680963
2022-12-11T04:51:52.894Z,9.680933
2022-12-11T04:52:52.851Z,9.681220
2022-12-11T04:53:52.848Z,9.680631
2022-12-11T04:54:52.839Z,9.680610
2022-12-11T04:55:52.840Z,9.681006
2022-12-11T04:56:52.825Z,9.680510
2022-12-11T04:57:52.839Z,9.681082
2022-12-11T04:58:52.812Z,9.680792
2022-12-11T04:59:52.811Z,9.680691
2022-12-11T05:00:52.800Z,9.680731
2022-12-11T05:01:52.906Z,9.680661
2022-12-11T05:02:52.847Z,9.680732
2022-12-11T05:03:52.782Z,9.680699
2022-12-11T05:04:52.779Z,9.681074
2022-12-11T05:05:52.792Z,9.681013
2022-12-11T05:06:52.785Z,9.680098
2022-12-11T05:07:52.788Z,9.680633
2022-12-11T05:08:52.758Z,9.681247
2022-12-11T05:09:52.763Z,9.681070
2022-12-11T05:10:52.742Z,9.680967
2022-12-11T05:11:52.734Z,9.681507
2022-12-11T05:12:52.781Z,9.681190
2022-12-11T05:13:52.723Z,9.681590
2022-12-11T05:14:52.721Z,9.681101
2022-12-11T05:15:52.768Z,9.680542
2022-12-11T05:16:52.699Z,9.680548
2022-12-11T05:17:52.697Z,9.680471
2022-12-11T05:18:52.716Z,9.680824
2022-12-11T05:19:52.689Z,9.680965
2022-12-11T05:20:52.679Z,9.680654
2022-12-11T05:21:52.669Z,9.680504
2022-12-11T05:22:52.679Z,9.680550
2022-12-11T05:23:52.659Z,9.680868
2022-12-11T05:24:52.657Z,9.681402
2022-12-11T05:25:52.669Z,9.681001
2022-12-11T05:26:52.640Z,9.681473
2022-12-11T05:27:52.636Z,9.681227
2022-12-11T05:28:52.623Z,9.681394
2022-12-11T05:29:57.799Z,9.681319
2022-12-11T05:30:52.633Z,9.681169
2022-12-11T05:31:52.624Z,9.681740
2022-12-11T05:32:52.601Z,9.680800
2022-12-11T05:33:52.601Z,9.681277
2022-12-11T05:34:52.590Z,9.681483
2022-12-11T05:35:52.579Z,9.682361
2022-12-11T05:36:52.571Z,9.681768
2022-12-11T05:37:52.603Z,9.681659
2022-12-11T05:38:52.565Z,9.681026
2022-12-11T05:39:52.584Z,9.681136
2022-12-11T05:40:52.555Z,9.681020
2022-12-11T05:41:52.572Z,9.681413
2022-12-11T05:42:52.547Z,9.681883
2022-12-11T05:43:52.536Z,9.680933
2022-12-11T05:44:52.520Z,9.680512
2022-12-11T05:45:52.521Z,9.680739
2022-12-11T05:46:52.554Z,9.680615
2022-12-11T05:47:52.536Z,9.680747
2022-12-11T05:48:52.518Z,9.680729
2022-12-11T05:49:52.506Z,9.680717
2022-12-11T05:50:52.494Z,9.680995
2022-12-11T05:51:52.494Z,9.681484
2022-12-11T05:52:52.481Z,9.681458
2022-12-11T05:53:52.494Z,9.681161
2022-12-11T05:54:52.470Z,9.681383
2022-12-11T05:55:52.462Z,9.681123
2022-12-11T05:56:52.462Z,9.680928
2022-12-11T05:57:52.456Z,9.681669
2022-12-11T05:58:52.459Z,9.681423
2022-12-11T05:59:52.441Z,9.681236
2022-12-11T06:00:52.435Z,9.681478
2022-12-11T06:01:52.677Z,9.681179
2022-12-11T06:02:52.689Z,9.680863
2022-12-11T06:03:52.421Z,9.680198
2022-12-11T06:04:52.406Z,9.680253
2022-12-11T06:05:52.412Z,9.679663
2022-12-11T06:06:52.449Z,9.679533
2022-12-11T06:07:52.471Z,9.679467
2022-12-11T06:08:52.390Z,9.680120
2022-12-11T06:09:52.380Z,9.680139
2022-12-11T06:10:52.401Z,9.680562
2022-12-11T06:11:52.387Z,9.680632
2022-12-11T06:12:52.401Z,9.680998
2022-12-11T06:13:52.401Z,9.681134
2022-12-11T06:14:52.353Z,9.680815
2022-12-11T06:15:52.358Z,9.680535
2022-12-11T06:16:52.407Z,9.680449
2022-12-11T06:17:52.329Z,9.680811
2022-12-11T06:18:54.672Z,9.681062
2022-12-11T06:19:53.320Z,9.680791
2022-12-11T06:20:52.311Z,9.680384
2022-12-11T06:21:52.316Z,9.680929
2022-12-11T06:22:52.300Z,9.680544
2022-12-11T06:23:52.310Z,9.680799
2022-12-11T06:24:52.301Z,9.681392
2022-12-11T06:25:52.278Z,9.681164
2022-12-11T06:26:52.278Z,9.680695
2022-12-11T06:27:52.271Z,9.680695
2022-12-11T06:28:52.262Z,9.681234
2022-12-11T06:29:52.260Z,9.680651
2022-12-11T06:30:52.346Z,9.680777
2022-12-11T06:31:52.323Z,9.681151
2022-12-11T06:32:52.238Z,9.681108
2022-12-11T06:33:52.228Z,9.681185
2022-12-11T06:34:52.242Z,9.681299
2022-12-11T06:35:52.214Z,9.681186
2022-12-11T06:36:52.207Z,9.681186
2022-12-11T06:37:52.211Z,9.674908
2022-12-11T06:38:52.221Z,9.674266
2022-12-11T06:39:52.193Z,9.673275
2022-12-11T06:40:52.186Z,9.679866
2022-12-11T06:41:52.197Z,9.680390
2022-12-11T06:42:52.233Z,9.681163
2022-12-11T06:43:52.171Z,9.681128
2022-12-11T06:44:52.159Z,9.681296
2022-12-11T06:45:52.177Z,9.681551
2022-12-11T06:46:52.225Z,9.681394
2022-12-11T06:47:52.158Z,9.681432
2022-12-11T06:48:52.139Z,9.681084
2022-12-11T06:49:52.131Z,9.681307
2022-12-11T06:50:52.122Z,9.681273
2022-12-11T06:51:52.120Z,9.681382
2022-12-11T06:52:52.111Z,9.681630
2022-12-11T06:53:52.128Z,9.681952
2022-12-11T06:54:52.088Z,9.681539
2022-12-11T06:55:52.094Z,9.681352
2022-12-11T06:56:52.084Z,9.681311
2022-12-11T06:57:52.082Z,9.681147
2022-12-11T06:58:52.221Z,9.681209
2022-12-11T06:59:52.081Z,9.681543
2022-12-11T07:00:52.106Z,9.681604
2022-12-11T07:01:52.079Z,9.681389
2022-12-11T07:02:52.039Z,9.680806
2022-12-11T07:03:52.041Z,9.681464
2022-12-11T07:04:55.285Z,9.681613
2022-12-11T07:05:52.038Z,9.681636
2022-12-11T07:06:52.044Z,9.681322
2022-12-11T07:07:52.051Z,9.681254
2022-12-11T07:08:52.011Z,9.681030
2022-12-11T07:09:51.996Z,9.681327
2022-12-11T07:10:51.991Z,9.681093
2022-12-11T07:11:51.987Z,9.681093
2022-12-11T07:12:52.005Z,9.680904
2022-12-11T07:13:51.976Z,9.681220
2022-12-11T07:14:51.968Z,9.681097
2022-12-11T07:15:51.962Z,9.681335
2022-12-11T07:16:51.996Z,9.681028
2022-12-11T07:17:51.973Z,9.681015
2022-12-11T07:18:51.955Z,9.681232
2022-12-11T07:19:51.964Z,9.681104
2022-12-11T07:20:51.932Z,9.680904
2022-12-11T07:21:51.921Z,9.681026
2022-12-11T07:22:51.915Z,9.681526
2022-12-11T07:23:51.911Z,9.681086
2022-12-11T07:24:51.904Z,9.681343
2022-12-11T07:25:51.912Z,9.681061
2022-12-11T07:26:51.914Z,9.680923
2022-12-11T07:27:51.930Z,9.680926
2022-12-11T07:28:51.884Z,9.681609
2022-12-11T07:29:51.878Z,9.680770
2022-12-11T07:30:51.883Z,9.681014
2022-12-11T07:31:51.906Z,9.680979
2022-12-11T07:32:51.986Z,9.681323
2022-12-11T07:33:51.849Z,9.681177
2022-12-11T07:34:52.290Z,9.681146
2022-12-11T07:35:51.840Z,9.681157
2022-12-11T07:36:51.885Z,9.681742
2022-12-11T07:37:51.822Z,9.681377
2022-12-11T07:38:51.821Z,9.681305
2022-12-11T07:39:51.847Z,9.681396
2022-12-11T07:40:51.805Z,9.681164
2022-12-11T07:41:51.798Z,9.681048
2022-12-11T07:42:51.813Z,9.681329
2022-12-11T07:43:51.787Z,9.681061
2022-12-11T07:44:51.785Z,9.680821
2022-12-11T07:45:51.836Z,9.681248
2022-12-11T07:46:51.768Z,9.681066
2022-12-11T07:47:51.793Z,9.680786
2022-12-11T07:48:51.764Z,9.680913
2022-12-11T07:49:51.755Z,9.680988
2022-12-11T07:50:51.735Z,9.681469
2022-12-11T07:51:51.747Z,9.681676
2022-12-11T07:52:51.746Z,9.681230
2022-12-11T07:53:51.728Z,9.681286
2022-12-11T07:54:51.728Z,9.681172
2022-12-11T07:55:51.711Z,9.681201
2022-12-11T07:56:53.877Z,9.681657
2022-12-11T07:57:51.724Z,9.680671
2022-12-11T07:58:51.706Z,9.680783
2022-12-11T07:59:51.688Z,9.680637
2022-12-11T08:00:51.720Z,9.681046
2022-12-11T08:01:51.682Z,9.681201
2022-12-11T08:02:51.673Z,9.680836
2022-12-11T08:03:51.656Z,9.680625
2022-12-11T08:04:51.668Z,9.680507
2022-12-11T08:05:51.652Z,9.680475
2022-12-11T08:06:51.635Z,9.680634
2022-12-11T08:07:51.746Z,9.681128
2022-12-11T08:08:51.626Z,9.681765
2022-12-11T08:09:51.622Z,9.681186
2022-12-11T08:10:51.633Z,9.680712
2022-12-11T08:11:51.624Z,9.680798
2022-12-11T08:12:51.597Z,9.680686
2022-12-11T08:13:51.599Z,9.680507
2022-12-11T08:14:51.585Z,9.680447
2022-12-11T08:15:52.001Z,9.680341
2022-12-11T08:16:51.651Z,9.680526
2022-12-11T08:17:51.588Z,9.680550
2022-12-11T08:18:51.583Z,9.680743
2022-12-11T08:19:51.563Z,9.680861
2022-12-11T08:20:51.549Z,9.681108
2022-12-11T08:21:51.547Z,9.681269
2022-12-11T08:22:55.913Z,9.680636
2022-12-11T08:23:51.537Z,9.680636
2022-12-11T08:24:51.532Z,9.680636
2022-12-11T08:25:51.548Z,9.680636
2022-12-11T08:26:51.516Z,9.680636
2022-12-11T08:27:51.526Z,9.680636
2022-12-11T08:28:51.501Z,9.680636
2022-12-11T08:29:51.512Z,9.680636
2022-12-11T08:30:51.544Z,9.680636
2022-12-11T08:31:51.490Z,9.680636
2022-12-11T08:32:51.479Z,9.680636
2022-12-11T08:33:51.472Z,9.680636
2022-12-11T08:34:51.484Z,9.680636
2022-12-11T08:35:51.469Z,9.680636
2022-12-11T08:36:51.454Z,9.680636
2022-12-11T08:37:51.451Z,9.680636
2022-12-11T08:38:51.452Z,9.680636
2022-12-11T08:39:51.463Z,9.680636
2022-12-11T08:40:51.447Z,9.680636
2022-12-11T08:41:51.430Z,9.680636
2022-12-11T08:42:51.417Z,9.680636
2022-12-11T08:43:51.421Z,9.681082
2022-12-11T08:44:51.399Z,9.681085
2022-12-11T08:45:51.462Z,9.680906
2022-12-11T08:46:51.386Z,9.680019
2022-12-11T08:47:51.390Z,9.681089
2022-12-11T08:48:51.380Z,9.681103
2022-12-11T08:49:51.390Z,9.681124
2022-12-11T08:50:51.388Z,9.680582
2022-12-11T08:51:51.380Z,9.680582
2022-12-11T08:52:51.357Z,9.680864
2022-12-11T08:53:51.364Z,9.680864
2022-12-11T08:54:51.339Z,9.680864
2022-12-11T08:55:51.345Z,9.680864
2022-12-11T08:56:56.333Z,9.681258
2022-12-11T08:57:52.365Z,9.681317
2022-12-11T08:58:51.341Z,9.680823
2022-12-11T08:59:51.317Z,9.680632
2022-12-11T09:00:51.311Z,9.680891
2022-12-11T09:01:51.356Z,9.681183
2022-12-11T09:02:51.354Z,9.681212
2022-12-11T09:03:51.299Z,9.680977
2022-12-11T09:04:51.300Z,9.680887
2022-12-11T09:05:51.313Z,9.680914
2022-12-11T09:06:51.291Z,9.681396
2022-12-11T09:07:51.327Z,9.681118
2022-12-11T09:08:52.920Z,9.681075
2022-12-11T09:09:51.250Z,9.681026
2022-12-11T09:10:51.239Z,9.680923
2022-12-11T09:11:51.254Z,9.681083
2022-12-11T09:12:51.234Z,9.681061
2022-12-11T09:13:51.264Z,9.680827
2022-12-11T09:14:51.247Z,9.680943
2022-12-11T09:15:51.291Z,9.681000
2022-12-11T09:16:51.227Z,9.681147
2022-12-11T09:17:51.200Z,9.681009
2022-12-11T09:18:51.233Z,9.681365
2022-12-11T09:19:51.193Z,9.681127
2022-12-11T09:20:51.197Z,9.681034
2022-12-11T09:21:51.193Z,9.681159
2022-12-11T09:22:51.193Z,9.681176
2022-12-11T09:23:51.179Z,9.681256
2022-12-11T09:24:51.175Z,9.681052
2022-12-11T09:25:51.477Z,9.680950
2022-12-11T09:26:51.143Z,9.681206
2022-12-11T09:27:51.141Z,9.680943
2022-12-11T09:28:51.133Z,9.681126
2022-12-11T09:29:51.122Z,9.681129
2022-12-11T09:30:51.151Z,9.681044
2022-12-11T09:31:51.130Z,9.680810
2022-12-11T09:32:51.100Z,9.680983
2022-12-11T09:33:51.107Z,9.680822
2022-12-11T09:34:51.094Z,9.681188
2022-12-11T09:35:51.084Z,9.681109
2022-12-11T09:36:51.090Z,9.680988
2022-12-11T09:37:51.079Z,9.681239
2022-12-11T09:38:51.059Z,9.681518
2022-12-11T09:39:51.051Z,9.681216
2022-12-11T09:40:51.061Z,9.681162
2022-12-11T09:41:51.060Z,9.681225
2022-12-11T09:42:51.088Z,9.681276
2022-12-11T09:43:51.037Z,9.681433
2022-12-11T09:44:51.033Z,9.681222
2022-12-11T09:45:51.056Z,9.681340
2022-12-11T09:46:51.113Z,9.681274
2022-12-11T09:47:51.003Z,9.681271
2022-12-11T09:48:50.999Z,9.681017
2022-12-11T09:49:50.992Z,9.681009
2022-12-11T09:50:50.987Z,9.680956
2022-12-11T09:51:51.016Z,9.681085
2022-12-11T09:52:51.001Z,9.681040
2022-12-11T09:53:50.962Z,9.681257
2022-12-11T09:54:50.956Z,9.681244
2022-12-11T09:55:50.957Z,9.680986
2022-12-11T09:56:50.949Z,9.681067
2022-12-11T09:57:50.939Z,9.681329
2022-12-11T09:58:50.937Z,9.681170
2022-12-11T09:59:50.929Z,9.681273
2022-12-11T10:00:50.929Z,9.681027
2022-12-11T10:01:50.954Z,9.681010
2022-12-11T10:02:50.982Z,9.681076
2022-12-11T10:03:50.891Z,9.681069
2022-12-11T10:04:50.895Z,9.681389
2022-12-11T10:05:50.901Z,9.681504
2022-12-11T10:06:50.917Z,9.681410
2022-12-11T10:07:50.894Z,9.681292
2022-12-11T10:08:50.865Z,9.681239
2022-12-11T10:09:50.876Z,9.681536
2022-12-11T10:10:50.857Z,9.681537
2022-12-11T10:11:56.414Z,9.681116
2022-12-11T10:12:51.851Z,9.681144
2022-12-11T10:13:50.841Z,9.681212
2022-12-11T10:14:50.893Z,9.680962
2022-12-11T10:15:50.906Z,9.681050
2022-12-11T10:16:50.822Z,9.681090
2022-12-11T10:17:50.827Z,9.681126
2022-12-11T10:18:50.824Z,9.681202
2022-12-11T10:19:50.831Z,9.681202
2022-12-11T10:20:50.801Z,9.681202
2022-12-11T10:21:50.819Z,9.681202
2022-12-11T10:22:50.778Z,9.681202
2022-12-11T10:23:50.782Z,9.681202
2022-12-11T10:25:10.712Z,9.681202
2022-12-11T10:25:51.778Z,9.681202
2022-12-11T10:26:50.787Z,9.681202
2022-12-11T10:27:50.769Z,9.681202
2022-12-11T10:28:50.746Z,9.681202
2022-12-11T10:29:50.732Z,9.681202
2022-12-11T10:30:50.765Z,9.681202
2022-12-11T10:31:50.728Z,9.681202
2022-12-11T10:32:50.715Z,9.681202
2022-12-11T10:33:50.781Z,9.681202
2022-12-11T10:34:50.730Z,9.681202
2022-12-11T10:35:50.752Z,9.681202
2022-12-11T10:36:51.141Z,9.681202
2022-12-11T10:37:50.703Z,9.681202
2022-12-11T10:38:50.707Z,9.681202
2022-12-11T10:39:50.708Z,9.681202
2022-12-11T10:40:50.679Z,9.681202
2022-12-11T10:41:50.690Z,9.681202
2022-12-11T10:42:50.694Z,9.681202
2022-12-11T10:43:50.665Z,9.681202
2022-12-11T10:44:50.693Z,9.681202
2022-12-11T10:45:50.680Z,9.681202
2022-12-11T10:46:50.681Z,9.681202
2022-12-11T10:47:50.643Z,9.681202
2022-12-11T10:48:50.657Z,9.681202
2022-12-11T10:49:50.633Z,9.681202
2022-12-11T10:50:50.655Z,9.681202
2022-12-11T10:51:50.619Z,9.681202
2022-12-11T10:52:50.613Z,9.681202
2022-12-11T10:53:50.604Z,9.681202
2022-12-11T10:54:50.626Z,9.681202
2022-12-11T10:55:50.594Z,9.681202
2022-12-11T10:56:50.607Z,9.681202
2022-12-11T10:57:50.599Z,9.681202
2022-12-11T10:58:50.567Z,9.681202
2022-12-11T10:59:50.590Z,9.681202
2022-12-11T11:00:50.578Z,9.681202
2022-12-11T11:01:50.584Z,9.681202
2022-12-11T11:02:50.551Z,9.681202
2022-12-11T11:03:50.542Z,9.681202
2022-12-11T11:04:50.527Z,9.681202
2022-12-11T11:05:50.565Z,9.681202
2022-12-11T11:06:50.511Z,9.681202
2022-12-11T11:07:50.547Z,9.681202
2022-12-11T11:08:50.505Z,9.681202
2022-12-11T11:09:50.492Z,9.681202
2022-12-11T11:10:50.500Z,9.681202
2022-12-11T11:11:50.533Z,9.681202
2022-12-11T11:12:50.493Z,9.681202
2022-12-11T11:13:50.473Z,9.681202
2022-12-11T11:14:50.462Z,9.681202
2022-12-11T11:15:50.499Z,9.681202
2022-12-11T11:16:50.448Z,9.681202
2022-12-11T11:17:55.029Z,9.681202
2022-12-11T11:18:51.463Z,9.681202
2022-12-11T11:19:50.435Z,9.681202
2022-12-11T11:20:50.450Z,9.681202
2022-12-11T11:21:50.471Z,9.681202
2022-12-11T11:22:50.422Z,9.681202
2022-12-11T11:23:53.280Z,9.681202
2022-12-11T11:24:50.421Z,9.681202
2022-12-11T11:25:50.405Z,9.681202
2022-12-11T11:27:12.758Z,9.681202
2022-12-11T11:27:51.430Z,9.681202
2022-12-11T11:28:50.387Z,9.681202
2022-12-11T11:29:53.206Z,9.681202
2022-12-11T11:30:50.430Z,9.681202
2022-12-11T11:31:50.363Z,9.681202
2022-12-11T11:32:50.393Z,9.681202
2022-12-11T11:33:50.364Z,9.681202
2022-12-11T11:34:50.337Z,9.681202
2022-12-11T11:35:50.336Z,9.681202
2022-12-11T11:36:50.354Z,9.681202
2022-12-11T11:37:50.342Z,9.681202
2022-12-11T11:38:50.311Z,9.681202
2022-12-11T11:39:50.315Z,9.681202
2022-12-11T11:40:50.303Z,9.681202
2022-12-11T11:41:50.293Z,9.681202
2022-12-11T11:42:50.393Z,9.681202
2022-12-11T11:43:50.302Z,9.681202
2022-12-11T11:44:50.282Z,9.681202